sensor_id;sensor_type;location;lat;lon;timestamp;pressure;altitude;pressure_sealevel;temperature;humidity
63694;BME280;49839;51.798;10.954;2023-04-27T00:01:25;99337.53;;;4.83;nan
63694;BME280;49839;51.798;10.954;2023-04-27T00:03:53;99331.53;;;4.80;nan
63694;BME280;49839;51.798;10.954;2023-04-27T00:06:22;99329.81;;;4.79;nan
63694;BME280;49839;51.798;10.954;2023-04-27T00:08:53;99335.94;;;4.78;nan
63694;BME280;49839;51.798;10.954;2023-04-27T00:11:21;99324.53;;;4.80;nan
63694;BME280;49839;51.798;10.954;2023-04-27T00:13:49;99335.00;;;4.80;nan
63694;BME280;49839;51.798;10.954;2023-04-27T00:16:17;99327.16;;;4.80;nan
63694;BME280;49839;51.798;10.954;2023-04-27T00:18:44;99327.09;;;4.82;nan
63694;BME280;49839;51.798;10.954;2023-04-27T00:21:13;99324.59;;;4.79;nan
63694;BME280;49839;51.798;10.954;2023-04-27T00:23:40;99326.34;;;4.78;nan
63694;BME280;49839;51.798;10.954;2023-04-27T00:26:10;99328.91;;;4.80;nan
63694;BME280;49839;51.798;10.954;2023-04-27T00:28:43;99323.75;;;4.78;nan
63694;BME280;49839;51.798;10.954;2023-04-27T00:31:12;99322.91;;;4.76;nan
63694;BME280;49839;51.798;10.954;2023-04-27T00:33:39;99326.47;;;4.74;nan
63694;BME280;49839;51.798;10.954;2023-04-27T00:36:07;99327.44;;;4.71;nan
63694;BME280;49839;51.798;10.954;2023-04-27T00:38:35;99327.59;;;4.65;nan
63694;BME280;49839;51.798;10.954;2023-04-27T00:41:04;99329.41;;;4.61;nan
63694;BME280;49839;51.798;10.954;2023-04-27T00:43:40;99327.81;;;4.56;nan
63694;BME280;49839;51.798;10.954;2023-04-27T00:46:08;99330.56;;;4.51;nan
63694;BME280;49839;51.798;10.954;2023-04-27T00:48:37;99334.06;;;4.50;nan
63694;BME280;49839;51.798;10.954;2023-04-27T00:51:05;99327.13;;;4.49;nan
63694;BME280;49839;51.798;10.954;2023-04-27T00:53:33;99336.72;;;4.49;nan
63694;BME280;49839;51.798;10.954;2023-04-27T00:56:02;99333.31;;;4.47;nan
63694;BME280;49839;51.798;10.954;2023-04-27T00:58:30;99329.91;;;4.43;nan
63694;BME280;49839;51.798;10.954;2023-04-27T01:00:59;99328.25;;;4.41;nan
63694;BME280;49839;51.798;10.954;2023-04-27T01:03:28;99328.19;;;4.42;nan
63694;BME280;49839;51.798;10.954;2023-04-27T01:05:56;99336.06;;;4.41;nan
63694;BME280;49839;51.798;10.954;2023-04-27T01:08:26;99330.84;;;4.41;nan
63694;BME280;49839;51.798;10.954;2023-04-27T01:10:54;99329.09;;;4.41;nan
63694;BME280;49839;51.798;10.954;2023-04-27T01:13:22;99331.72;;;4.41;nan
63694;BME280;49839;51.798;10.954;2023-04-27T01:15:50;99329.94;;;4.42;nan
63694;BME280;49839;51.798;10.954;2023-04-27T01:18:18;99333.38;;;4.44;nan
63694;BME280;49839;51.798;10.954;2023-04-27T01:20:46;99337.72;;;4.45;nan
63694;BME280;49839;51.798;10.954;2023-04-27T01:23:15;99331.59;;;4.46;nan
63694;BME280;49839;51.798;10.954;2023-04-27T01:25:43;99335.91;;;4.47;nan
63694;BME280;49839;51.798;10.954;2023-04-27T01:28:10;99338.41;;;4.51;nan
63694;BME280;49839;51.798;10.954;2023-04-27T01:30:38;99342.69;;;4.54;nan
63694;BME280;49839;51.798;10.954;2023-04-27T01:33:06;99338.25;;;4.56;nan
63694;BME280;49839;51.798;10.954;2023-04-27T01:35:33;99338.34;;;4.53;nan
63694;BME280;49839;51.798;10.954;2023-04-27T01:38:01;99337.50;;;4.52;nan
63694;BME280;49839;51.798;10.954;2023-04-27T01:40:30;99337.50;;;4.52;nan
63694;BME280;49839;51.798;10.954;2023-04-27T01:42:57;99344.44;;;4.53;nan
63694;BME280;49839;51.798;10.954;2023-04-27T01:45:25;99345.34;;;4.52;nan
63694;BME280;49839;51.798;10.954;2023-04-27T01:47:53;99344.47;;;4.52;nan
63694;BME280;49839;51.798;10.954;2023-04-27T01:50:21;99341.09;;;4.48;nan
63694;BME280;49839;51.798;10.954;2023-04-27T01:52:48;99350.66;;;4.48;nan
63694;BME280;49839;51.798;10.954;2023-04-27T01:55:16;99347.25;;;4.44;nan
63694;BME280;49839;51.798;10.954;2023-04-27T01:57:45;99345.69;;;4.39;nan
63694;BME280;49839;51.798;10.954;2023-04-27T02:00:13;99356.19;;;4.35;nan
63694;BME280;49839;51.798;10.954;2023-04-27T02:02:41;99359.81;;;4.30;nan
63694;BME280;49839;51.798;10.954;2023-04-27T02:05:08;99365.97;;;4.27;nan
63694;BME280;49839;51.798;10.954;2023-04-27T02:07:36;99369.50;;;4.26;nan
63694;BME280;49839;51.798;10.954;2023-04-27T02:10:05;99366.94;;;4.23;nan
63694;BME280;49839;51.798;10.954;2023-04-27T02:12:33;99372.25;;;4.20;nan
63694;BME280;49839;51.798;10.954;2023-04-27T02:15:02;99369.69;;;4.17;nan
63694;BME280;49839;51.798;10.954;2023-04-27T02:17:29;99370.69;;;4.13;nan
63694;BME280;49839;51.798;10.954;2023-04-27T02:19:59;99382.03;;;4.11;nan
63694;BME280;49839;51.798;10.954;2023-04-27T02:22:27;99378.63;;;4.08;nan
63694;BME280;49839;51.798;10.954;2023-04-27T02:24:54;99382.97;;;4.08;nan
63694;BME280;49839;51.798;10.954;2023-04-27T02:27:22;99377.88;;;4.03;nan
63694;BME280;49839;51.798;10.954;2023-04-27T02:29:49;99383.09;;;4.03;nan
63694;BME280;49839;51.798;10.954;2023-04-27T02:32:18;99383.91;;;4.05;nan
63694;BME280;49839;51.798;10.954;2023-04-27T02:34:46;99391.75;;;4.04;nan
63694;BME280;49839;51.798;10.954;2023-04-27T02:37:13;99391.00;;;4.00;nan
63694;BME280;49839;51.798;10.954;2023-04-27T02:39:41;99398.81;;;3.99;nan
63694;BME280;49839;51.798;10.954;2023-04-27T02:42:09;99403.19;;;3.98;nan
63694;BME280;49839;51.798;10.954;2023-04-27T02:44:36;99392.75;;;4.00;nan
63694;BME280;49839;51.798;10.954;2023-04-27T02:47:04;99393.59;;;4.00;nan
63694;BME280;49839;51.798;10.954;2023-04-27T02:49:33;99393.47;;;4.06;nan
63694;BME280;49839;51.798;10.954;2023-04-27T02:52:03;99400.25;;;4.12;nan
63694;BME280;49839;51.798;10.954;2023-04-27T02:54:31;99399.28;;;4.16;nan
63694;BME280;49839;51.798;10.954;2023-04-27T02:56:59;99405.25;;;4.21;nan
63694;BME280;49839;51.798;10.954;2023-04-27T02:59:27;99411.25;;;4.25;nan
63694;BME280;49839;51.798;10.954;2023-04-27T03:01:54;99407.72;;;4.27;nan
63694;BME280;49839;51.798;10.954;2023-04-27T03:04:22;99408.69;;;4.23;nan
63694;BME280;49839;51.798;10.954;2023-04-27T03:06:51;99417.59;;;4.15;nan
63694;BME280;49839;51.798;10.954;2023-04-27T03:09:18;99413.34;;;4.11;nan
63694;BME280;49839;51.798;10.954;2023-04-27T03:11:46;99418.56;;;4.11;nan
63694;BME280;49839;51.798;10.954;2023-04-27T03:14:13;99422.00;;;4.11;nan
63694;BME280;49839;51.798;10.954;2023-04-27T03:16:41;99421.06;;;4.15;nan
63694;BME280;49839;51.798;10.954;2023-04-27T03:19:09;99420.06;;;4.21;nan
63694;BME280;49839;51.798;10.954;2023-04-27T03:21:36;99426.88;;;4.26;nan
63694;BME280;49839;51.798;10.954;2023-04-27T03:24:06;99428.50;;;4.30;nan
63694;BME280;49839;51.798;10.954;2023-04-27T03:26:33;99424.84;;;4.38;nan
63694;BME280;49839;51.798;10.954;2023-04-27T03:29:01;99424.75;;;4.42;nan
63694;BME280;49839;51.798;10.954;2023-04-27T03:31:29;99422.94;;;4.46;nan
63694;BME280;49839;51.798;10.954;2023-04-27T03:33:57;99431.50;;;4.49;nan
63694;BME280;49839;51.798;10.954;2023-04-27T03:36:24;99426.19;;;4.54;nan
63694;BME280;49839;51.798;10.954;2023-04-27T03:38:52;99426.94;;;4.59;nan
63694;BME280;49839;51.798;10.954;2023-04-27T03:41:21;99423.38;;;4.61;nan
63694;BME280;49839;51.798;10.954;2023-04-27T03:43:48;99425.03;;;4.66;nan
63694;BME280;49839;51.798;10.954;2023-04-27T03:46:18;99421.41;;;4.71;nan
63694;BME280;49839;51.798;10.954;2023-04-27T03:48:46;99421.31;;;4.74;nan
63694;BME280;49839;51.798;10.954;2023-04-27T03:51:13;99417.78;;;4.75;nan
63694;BME280;49839;51.798;10.954;2023-04-27T03:53:41;99422.94;;;4.78;nan
63694;BME280;49839;51.798;10.954;2023-04-27T03:56:09;99422.06;;;4.79;nan
63694;BME280;49839;51.798;10.954;2023-04-27T03:58:38;99424.59;;;4.81;nan
63694;BME280;49839;51.798;10.954;2023-04-27T04:01:05;99418.47;;;4.83;nan
63694;BME280;49839;51.798;10.954;2023-04-27T04:03:35;99420.13;;;4.86;nan
63694;BME280;49839;51.798;10.954;2023-04-27T04:06:04;99421.78;;;4.90;nan
63694;BME280;49839;51.798;10.954;2023-04-27T04:08:31;99422.56;;;4.92;nan
63694;BME280;49839;51.798;10.954;2023-04-27T04:10:59;99421.63;;;4.95;nan
63694;BME280;49839;51.798;10.954;2023-04-27T04:13:27;99425.94;;;4.96;nan
63694;BME280;49839;51.798;10.954;2023-04-27T04:16:03;99422.38;;;5.00;nan
63694;BME280;49839;51.798;10.954;2023-04-27T04:18:31;99418.81;;;5.02;nan
63694;BME280;49839;51.798;10.954;2023-04-27T04:20:59;99428.38;;;5.03;nan
63694;BME280;49839;51.798;10.954;2023-04-27T04:23:26;99430.09;;;5.04;nan
63694;BME280;49839;51.798;10.954;2023-04-27T04:25:54;99432.59;;;5.07;nan
63694;BME280;49839;51.798;10.954;2023-04-27T04:28:23;99427.34;;;5.09;nan
63694;BME280;49839;51.798;10.954;2023-04-27T04:30:51;99434.28;;;5.10;nan
63694;BME280;49839;51.798;10.954;2023-04-27T04:33:20;99425.59;;;5.09;nan
63694;BME280;49839;51.798;10.954;2023-04-27T04:35:47;99426.53;;;5.07;nan
63694;BME280;49839;51.798;10.954;2023-04-27T04:38:15;99433.50;;;5.06;nan
63694;BME280;49839;51.798;10.954;2023-04-27T04:40:43;99430.78;;;5.11;nan
63694;BME280;49839;51.798;10.954;2023-04-27T04:43:11;99427.16;;;5.15;nan
63694;BME280;49839;51.798;10.954;2023-04-27T04:45:39;99434.06;;;5.18;nan
63694;BME280;49839;51.798;10.954;2023-04-27T04:48:07;99438.44;;;5.17;nan
63694;BME280;49839;51.798;10.954;2023-04-27T04:50:38;99440.31;;;5.12;nan
63694;BME280;49839;51.798;10.954;2023-04-27T04:53:07;99442.94;;;5.12;nan
63694;BME280;49839;51.798;10.954;2023-04-27T04:55:34;99441.97;;;5.16;nan
63694;BME280;49839;51.798;10.954;2023-04-27T04:58:02;99435.72;;;5.20;nan
63694;BME280;49839;51.798;10.954;2023-04-27T05:00:30;99441.63;;;5.27;nan
63694;BME280;49839;51.798;10.954;2023-04-27T05:02:58;99445.84;;;5.32;nan
63694;BME280;49839;51.798;10.954;2023-04-27T05:05:26;99438.78;;;5.36;nan
63694;BME280;49839;51.798;10.954;2023-04-27T05:07:55;99444.03;;;5.34;nan
63694;BME280;49839;51.798;10.954;2023-04-27T05:10:23;99440.44;;;5.38;nan
63694;BME280;49839;51.798;10.954;2023-04-27T05:12:50;99447.38;;;5.39;nan
63694;BME280;49839;51.798;10.954;2023-04-27T05:15:18;99449.19;;;5.37;nan
63694;BME280;49839;51.798;10.954;2023-04-27T05:17:46;99452.66;;;5.38;nan
63694;BME280;49839;51.798;10.954;2023-04-27T05:20:13;99448.91;;;5.47;nan
63694;BME280;49839;51.798;10.954;2023-04-27T05:22:41;99455.53;;;5.58;nan
63694;BME280;49839;51.798;10.954;2023-04-27T05:25:12;99457.94;;;5.66;nan
63694;BME280;49839;51.798;10.954;2023-04-27T05:27:40;99461.09;;;5.77;nan
63694;BME280;49839;51.798;10.954;2023-04-27T05:30:08;99457.63;;;5.77;nan
63694;BME280;49839;51.798;10.954;2023-04-27T05:32:36;99466.38;;;5.76;nan
63694;BME280;49839;51.798;10.954;2023-04-27T05:35:05;99464.66;;;5.75;nan
63694;BME280;49839;51.798;10.954;2023-04-27T05:37:32;99471.72;;;5.71;nan
63694;BME280;49839;51.798;10.954;2023-04-27T05:40:00;99473.44;;;5.72;nan
63694;BME280;49839;51.798;10.954;2023-04-27T05:42:29;99479.69;;;5.68;nan
63694;BME280;49839;51.798;10.954;2023-04-27T05:44:57;99485.66;;;5.71;nan
63694;BME280;49839;51.798;10.954;2023-04-27T05:47:24;99487.25;;;5.77;nan
63694;BME280;49839;51.798;10.954;2023-04-27T05:49:52;99491.44;;;5.83;nan
63694;BME280;49839;51.798;10.954;2023-04-27T05:52:20;99492.09;;;5.91;nan
63694;BME280;49839;51.798;10.954;2023-04-27T05:54:48;99492.03;;;5.94;nan
63694;BME280;49839;51.798;10.954;2023-04-27T05:57:15;99493.34;;;6.07;nan
63694;BME280;49839;51.798;10.954;2023-04-27T05:59:44;99500.25;;;6.10;nan
63694;BME280;49839;51.798;10.954;2023-04-27T06:02:12;99492.88;;;6.22;nan
63694;BME280;49839;51.798;10.954;2023-04-27T06:04:40;99502.00;;;6.37;nan
63694;BME280;49839;51.798;10.954;2023-04-27T06:07:07;99509.53;;;6.48;nan
63694;BME280;49839;51.798;10.954;2023-04-27T06:09:35;99500.56;;;6.55;nan
63694;BME280;49839;51.798;10.954;2023-04-27T06:12:04;99503.25;;;6.54;nan
63694;BME280;49839;51.798;10.954;2023-04-27T06:14:32;99503.03;;;6.60;nan
63694;BME280;49839;51.798;10.954;2023-04-27T06:17:02;99510.75;;;6.64;nan
63694;BME280;49839;51.798;10.954;2023-04-27T06:19:31;99507.13;;;6.68;nan
63694;BME280;49839;51.798;10.954;2023-04-27T06:21:58;99506.84;;;6.76;nan
63694;BME280;49839;51.798;10.954;2023-04-27T06:24:26;99518.09;;;6.79;nan
63694;BME280;49839;51.798;10.954;2023-04-27T06:26:53;99509.28;;;6.82;nan
63694;BME280;49839;51.798;10.954;2023-04-27T06:29:22;99511.69;;;6.88;nan
63694;BME280;49839;51.798;10.954;2023-04-27T06:31:49;99510.50;;;6.98;nan
63694;BME280;49839;51.798;10.954;2023-04-27T06:34:18;99510.69;;;6.92;nan
63694;BME280;49839;51.798;10.954;2023-04-27T06:36:46;99514.31;;;6.88;nan
63694;BME280;49839;51.798;10.954;2023-04-27T06:39:13;99518.50;;;6.94;nan
63694;BME280;49839;51.798;10.954;2023-04-27T06:41:41;99515.72;;;6.98;nan
63694;BME280;49839;51.798;10.954;2023-04-27T06:44:09;99519.19;;;6.99;nan
63694;BME280;49839;51.798;10.954;2023-04-27T06:46:36;99529.22;;;7.13;nan
63694;BME280;49839;51.798;10.954;2023-04-27T06:49:04;99524.75;;;7.41;nan
63694;BME280;49839;51.798;10.954;2023-04-27T06:51:33;99523.38;;;7.78;nan
63694;BME280;49839;51.798;10.954;2023-04-27T06:54:01;99513.84;;;8.46;nan
63694;BME280;49839;51.798;10.954;2023-04-27T06:56:29;99521.78;;;9.08;nan
63694;BME280;49839;51.798;10.954;2023-04-27T06:58:57;99515.00;;;9.83;nan
63694;BME280;49839;51.798;10.954;2023-04-27T07:01:25;99507.50;;;9.55;nan
63694;BME280;49839;51.798;10.954;2023-04-27T07:03:52;99507.88;;;10.03;nan
63694;BME280;49839;51.798;10.954;2023-04-27T07:06:20;99517.00;;;10.34;nan
63694;BME280;49839;51.798;10.954;2023-04-27T07:08:50;99517.94;;;10.52;nan
63694;BME280;49839;51.798;10.954;2023-04-27T07:11:18;99522.56;;;11.00;nan
63694;BME280;49839;51.798;10.954;2023-04-27T07:13:45;99515.13;;;11.08;nan
63694;BME280;49839;51.798;10.954;2023-04-27T07:16:14;99526.97;;;11.00;nan
63694;BME280;49839;51.798;10.954;2023-04-27T07:18:42;99524.34;;;11.34;nan
63694;BME280;49839;51.798;10.954;2023-04-27T07:21:10;99521.78;;;11.50;nan
63694;BME280;49839;51.798;10.954;2023-04-27T07:23:38;99525.34;;;11.49;nan
63694;BME280;49839;51.798;10.954;2023-04-27T07:26:07;99526.19;;;11.67;nan
63694;BME280;49839;51.798;10.954;2023-04-27T07:28:35;99519.13;;;12.01;nan
63694;BME280;49839;51.798;10.954;2023-04-27T07:31:04;99521.09;;;12.44;nan
63694;BME280;49839;51.798;10.954;2023-04-27T07:33:32;99518.22;;;12.95;nan
63694;BME280;49839;51.798;10.954;2023-04-27T07:36:00;99521.94;;;13.37;nan
63694;BME280;49839;51.798;10.954;2023-04-27T07:38:28;99525.56;;;12.74;nan
63694;BME280;49839;51.798;10.954;2023-04-27T07:40:57;99529.69;;;12.16;nan
63694;BME280;49839;51.798;10.954;2023-04-27T07:43:26;99524.75;;;12.26;nan
63694;BME280;49839;51.798;10.954;2023-04-27T07:45:53;99524.00;;;12.24;nan
63694;BME280;49839;51.798;10.954;2023-04-27T07:48:24;99533.38;;;12.45;nan
63694;BME280;49839;51.798;10.954;2023-04-27T07:50:51;99523.66;;;12.46;nan
63694;BME280;49839;51.798;10.954;2023-04-27T07:53:19;99525.44;;;12.61;nan
63694;BME280;49839;51.798;10.954;2023-04-27T07:55:47;99522.03;;;13.21;nan
63694;BME280;49839;51.798;10.954;2023-04-27T07:58:15;99519.88;;;13.12;nan
63694;BME280;49839;51.798;10.954;2023-04-27T08:00:44;99521.69;;;13.41;nan
63694;BME280;49839;51.798;10.954;2023-04-27T08:03:12;99520.66;;;13.58;nan
63694;BME280;49839;51.798;10.954;2023-04-27T08:05:40;99515.59;;;13.25;nan
63694;BME280;49839;51.798;10.954;2023-04-27T08:08:07;99519.41;;;13.35;nan
63694;BME280;49839;51.798;10.954;2023-04-27T08:10:35;99518.94;;;13.71;nan
63694;BME280;49839;51.798;10.954;2023-04-27T08:13:03;99523.75;;;13.36;nan
63694;BME280;49839;51.798;10.954;2023-04-27T08:15:35;99531.44;;;13.69;nan
63694;BME280;49839;51.798;10.954;2023-04-27T08:18:04;99527.84;;;13.85;nan
63694;BME280;49839;51.798;10.954;2023-04-27T08:20:32;99521.44;;;13.74;nan
63694;BME280;49839;51.798;10.954;2023-04-27T08:22:59;99535.91;;;13.69;nan
63694;BME280;49839;51.798;10.954;2023-04-27T08:25:27;99535.16;;;13.67;nan
63694;BME280;49839;51.798;10.954;2023-04-27T08:27:54;99532.66;;;13.78;nan
63694;BME280;49839;51.798;10.954;2023-04-27T08:30:22;99528.91;;;13.68;nan
63694;BME280;49839;51.798;10.954;2023-04-27T08:32:50;99534.66;;;14.31;nan
63694;BME280;49839;51.798;10.954;2023-04-27T08:35:19;99531.19;;;14.85;nan
63694;BME280;49839;51.798;10.954;2023-04-27T08:37:46;99530.31;;;15.11;nan
63694;BME280;49839;51.798;10.954;2023-04-27T08:40:14;99531.53;;;14.93;nan
63694;BME280;49839;51.798;10.954;2023-04-27T08:42:54;99517.53;;;14.91;nan
63694;BME280;49839;51.798;10.954;2023-04-27T08:45:22;99518.34;;;15.18;nan
63694;BME280;49839;51.798;10.954;2023-04-27T08:47:50;99513.88;;;15.19;nan
63694;BME280;49839;51.798;10.954;2023-04-27T08:50:19;99511.59;;;15.40;nan
63694;BME280;49839;51.798;10.954;2023-04-27T08:52:50;99518.19;;;15.47;nan
63694;BME280;49839;51.798;10.954;2023-04-27T08:55:18;99498.22;;;15.80;nan
63694;BME280;49839;51.798;10.954;2023-04-27T08:57:56;99506.28;;;15.53;nan
63694;BME280;49839;51.798;10.954;2023-04-27T09:00:25;99505.31;;;14.61;nan
63694;BME280;49839;51.798;10.954;2023-04-27T09:02:52;99482.94;;;14.39;nan
63694;BME280;49839;51.798;10.954;2023-04-27T09:05:22;99492.38;;;13.44;nan
63694;BME280;49839;51.798;10.954;2023-04-27T09:07:57;99493.41;;;13.70;nan
63694;BME280;49839;51.798;10.954;2023-04-27T09:10:26;99491.53;;;13.87;nan
63694;BME280;49839;51.798;10.954;2023-04-27T09:12:55;99489.44;;;14.06;nan
63694;BME280;49839;51.798;10.954;2023-04-27T09:15:23;99486.66;;;14.22;nan
63694;BME280;49839;51.798;10.954;2023-04-27T09:17:54;99487.84;;;14.45;nan
63694;BME280;49839;51.798;10.954;2023-04-27T09:20:24;99492.19;;;13.90;nan
63694;BME280;49839;51.798;10.954;2023-04-27T09:22:52;99490.97;;;14.51;nan
63694;BME280;49839;51.798;10.954;2023-04-27T09:25:22;99491.91;;;13.80;nan
63694;BME280;49839;51.798;10.954;2023-04-27T09:27:50;99481.13;;;13.69;nan
63694;BME280;49839;51.798;10.954;2023-04-27T09:30:18;99473.47;;;13.50;nan
63694;BME280;49839;51.798;10.954;2023-04-27T09:32:52;99485.78;;;13.66;nan
63694;BME280;49839;51.798;10.954;2023-04-27T09:35:47;99477.16;;;13.04;nan
63694;BME280;49839;51.798;10.954;2023-04-27T09:38:20;99484.06;;;12.76;nan
63694;BME280;49839;51.798;10.954;2023-04-27T09:40:49;99482.97;;;12.17;nan
63694;BME280;49839;51.798;10.954;2023-04-27T09:43:17;99481.53;;;11.96;nan
63694;BME280;49839;51.798;10.954;2023-04-27T09:45:45;99485.13;;;11.61;nan
63694;BME280;49839;51.798;10.954;2023-04-27T09:48:13;99483.03;;;11.51;nan
63694;BME280;49839;51.798;10.954;2023-04-27T09:50:41;99487.66;;;11.63;nan
63694;BME280;49839;51.798;10.954;2023-04-27T09:53:13;99477.13;;;11.46;nan
63694;BME280;49839;51.798;10.954;2023-04-27T09:55:45;99485.31;;;11.06;nan
63694;BME280;49839;51.798;10.954;2023-04-27T09:58:32;99470.34;;;11.24;nan
63694;BME280;49839;51.798;10.954;2023-04-27T10:01:12;99476.16;;;11.31;nan
63694;BME280;49839;51.798;10.954;2023-04-27T10:03:54;99480.50;;;11.32;nan
63694;BME280;49839;51.798;10.954;2023-04-27T10:06:51;99473.72;;;11.44;nan
63694;BME280;49839;51.798;10.954;2023-04-27T10:09:23;99479.25;;;11.39;nan
63694;BME280;49839;51.798;10.954;2023-04-27T10:11:53;99488.19;;;11.19;nan
63694;BME280;49839;51.798;10.954;2023-04-27T10:14:23;99489.00;;;11.21;nan
63694;BME280;49839;51.798;10.954;2023-04-27T10:16:55;99482.72;;;11.57;nan
63694;BME280;49839;51.798;10.954;2023-04-27T10:19:24;99483.00;;;11.85;nan
63694;BME280;49839;51.798;10.954;2023-04-27T10:21:55;99485.38;;;12.06;nan
63694;BME280;49839;51.798;10.954;2023-04-27T10:24:37;99482.38;;;12.59;nan
63694;BME280;49839;51.798;10.954;2023-04-27T10:27:06;99479.81;;;12.58;nan
63694;BME280;49839;51.798;10.954;2023-04-27T10:29:37;99484.09;;;12.44;nan
63694;BME280;49839;51.798;10.954;2023-04-27T10:32:08;99475.34;;;13.04;nan
63694;BME280;49839;51.798;10.954;2023-04-27T10:34:36;99473.94;;;13.28;nan
63694;BME280;49839;51.798;10.954;2023-04-27T10:37:05;99477.63;;;13.69;nan
63694;BME280;49839;51.798;10.954;2023-04-27T10:39:37;99472.25;;;13.56;nan
63694;BME280;49839;51.798;10.954;2023-04-27T10:42:24;99478.13;;;12.87;nan
63694;BME280;49839;51.798;10.954;2023-04-27T10:44:55;99476.53;;;12.68;nan
63694;BME280;49839;51.798;10.954;2023-04-27T10:47:24;99484.13;;;13.05;nan
63694;BME280;49839;51.798;10.954;2023-04-27T10:50:03;99478.13;;;12.41;nan
63694;BME280;49839;51.798;10.954;2023-04-27T10:52:31;99479.94;;;12.25;nan
63694;BME280;49839;51.798;10.954;2023-04-27T10:55:11;99481.63;;;12.10;nan
63694;BME280;49839;51.798;10.954;2023-04-27T10:57:45;99469.09;;;12.13;nan
63694;BME280;49839;51.798;10.954;2023-04-27T11:00:14;99471.81;;;12.28;nan
63694;BME280;49839;51.798;10.954;2023-04-27T11:02:43;99472.53;;;12.77;nan
63694;BME280;49839;51.798;10.954;2023-04-27T11:05:18;99471.47;;;12.34;nan
63694;BME280;49839;51.798;10.954;2023-04-27T11:07:45;99459.03;;;12.04;nan
63694;BME280;49839;51.798;10.954;2023-04-27T11:10:16;99472.84;;;11.60;nan
63694;BME280;49839;51.798;10.954;2023-04-27T11:12:44;99464.75;;;11.63;nan
63694;BME280;49839;51.798;10.954;2023-04-27T11:15:12;99466.88;;;11.57;nan
63694;BME280;49839;51.798;10.954;2023-04-27T11:17:40;99467.63;;;11.59;nan
63694;BME280;49839;51.798;10.954;2023-04-27T11:20:08;99474.91;;;11.71;nan
63694;BME280;49839;51.798;10.954;2023-04-27T11:22:43;99470.09;;;11.79;nan
63694;BME280;49839;51.798;10.954;2023-04-27T11:25:11;99464.50;;;12.33;nan
63694;BME280;49839;51.798;10.954;2023-04-27T11:27:40;99477.53;;;12.52;nan
63694;BME280;49839;51.798;10.954;2023-04-27T11:30:21;99466.44;;;12.29;nan
63694;BME280;49839;51.798;10.954;2023-04-27T11:32:49;99473.28;;;12.33;nan
63694;BME280;49839;51.798;10.954;2023-04-27T11:35:18;99468.09;;;12.32;nan
63694;BME280;49839;51.798;10.954;2023-04-27T11:37:55;99466.50;;;11.80;nan
63694;BME280;49839;51.798;10.954;2023-04-27T11:40:24;99468.56;;;11.91;nan
63694;BME280;49839;51.798;10.954;2023-04-27T11:42:58;99472.69;;;12.12;nan
63694;BME280;49839;51.798;10.954;2023-04-27T11:45:29;99470.81;;;12.30;nan
63694;BME280;49839;51.798;10.954;2023-04-27T11:47:57;99459.97;;;12.35;nan
63694;BME280;49839;51.798;10.954;2023-04-27T11:50:26;99467.13;;;12.48;nan
63694;BME280;49839;51.798;10.954;2023-04-27T11:52:54;99470.53;;;12.51;nan
63694;BME280;49839;51.798;10.954;2023-04-27T11:55:22;99466.06;;;12.67;nan
63694;BME280;49839;51.798;10.954;2023-04-27T11:57:55;99461.47;;;12.55;nan
63694;BME280;49839;51.798;10.954;2023-04-27T12:00:24;99467.66;;;12.39;nan
63694;BME280;49839;51.798;10.954;2023-04-27T12:02:52;99471.75;;;12.13;nan
63694;BME280;49839;51.798;10.954;2023-04-27T12:05:20;99466.19;;;12.34;nan
63694;BME280;49839;51.798;10.954;2023-04-27T12:07:48;99466.84;;;12.69;nan
63694;BME280;49839;51.798;10.954;2023-04-27T12:10:15;99470.06;;;12.74;nan
63694;BME280;49839;51.798;10.954;2023-04-27T12:12:43;99477.38;;;12.39;nan
63694;BME280;49839;51.798;10.954;2023-04-27T12:15:11;99469.19;;;12.12;nan
63694;BME280;49839;51.798;10.954;2023-04-27T12:17:40;99468.69;;;12.05;nan
63694;BME280;49839;51.798;10.954;2023-04-27T12:20:08;99476.28;;;12.11;nan
63694;BME280;49839;51.798;10.954;2023-04-27T12:22:36;99469.72;;;12.18;nan
63694;BME280;49839;51.798;10.954;2023-04-27T12:25:10;99474.28;;;12.46;nan
63694;BME280;49839;51.798;10.954;2023-04-27T12:27:38;99463.28;;;12.23;nan
63694;BME280;49839;51.798;10.954;2023-04-27T12:30:07;99475.75;;;12.20;nan
63694;BME280;49839;51.798;10.954;2023-04-27T12:32:34;99457.84;;;12.26;nan
63694;BME280;49839;51.798;10.954;2023-04-27T12:35:04;99452.72;;;12.23;nan
63694;BME280;49839;51.798;10.954;2023-04-27T12:37:33;99453.84;;;12.50;nan
63694;BME280;49839;51.798;10.954;2023-04-27T12:40:01;99457.13;;;12.69;nan
63694;BME280;49839;51.798;10.954;2023-04-27T12:42:31;99443.94;;;12.84;nan
63694;BME280;49839;51.798;10.954;2023-04-27T12:44:59;99455.84;;;12.91;nan
63694;BME280;49839;51.798;10.954;2023-04-27T12:47:27;99456.94;;;12.72;nan
63694;BME280;49839;51.798;10.954;2023-04-27T12:50:16;99442.31;;;12.51;nan
63694;BME280;49839;51.798;10.954;2023-04-27T12:52:43;99452.56;;;12.10;nan
63694;BME280;49839;51.798;10.954;2023-04-27T12:55:11;99452.25;;;11.67;nan
63694;BME280;49839;51.798;10.954;2023-04-27T12:57:56;99453.25;;;11.31;nan
63694;BME280;49839;51.798;10.954;2023-04-27T13:00:24;99450.81;;;11.28;nan
63694;BME280;49839;51.798;10.954;2023-04-27T13:02:52;99451.69;;;11.45;nan
63694;BME280;49839;51.798;10.954;2023-04-27T13:05:21;99442.56;;;11.34;nan
63694;BME280;49839;51.798;10.954;2023-04-27T13:07:49;99453.34;;;11.63;nan
63694;BME280;49839;51.798;10.954;2023-04-27T13:10:16;99447.78;;;11.85;nan
63694;BME280;49839;51.798;10.954;2023-04-27T13:12:44;99443.03;;;12.07;nan
63694;BME280;49839;51.798;10.954;2023-04-27T13:15:12;99449.50;;;12.33;nan
63694;BME280;49839;51.798;10.954;2023-04-27T13:17:39;99441.63;;;12.47;nan
63694;BME280;49839;51.798;10.954;2023-04-27T13:20:09;99433.25;;;11.93;nan
63694;BME280;49839;51.798;10.954;2023-04-27T13:22:39;99440.53;;;12.04;nan
63694;BME280;49839;51.798;10.954;2023-04-27T13:25:07;99436.03;;;12.22;nan
63694;BME280;49839;51.798;10.954;2023-04-27T13:27:35;99434.50;;;12.34;nan